sensor_id;sensor_type;location;lat;lon;timestamp;P1;durP1;ratioP1;P2;durP2;ratioP2
51146;SDS011;37207;53.060;18.726;2023-01-29T00:02:08;35.70;;;16.30;;
51146;SDS011;37207;53.060;18.726;2023-01-29T00:04:34;26.00;;;14.10;;
51146;SDS011;37207;53.060;18.726;2023-01-29T00:07:01;27.80;;;14.20;;
51146;SDS011;37207;53.060;18.726;2023-01-29T00:09:27;27.70;;;15.30;;
51146;SDS011;37207;53.060;18.726;2023-01-29T00:11:54;29.10;;;14.60;;
51146;SDS011;37207;53.060;18.726;2023-01-29T00:14:21;23.60;;;12.70;;
51146;SDS011;37207;53.060;18.726;2023-01-29T00:16:47;22.10;;;12.30;;
51146;SDS011;37207;53.060;18.726;2023-01-29T00:19:14;21.30;;;13.50;;
51146;SDS011;37207;53.060;18.726;2023-01-29T00:21:40;21.60;;;13.20;;
51146;SDS011;37207;53.060;18.726;2023-01-29T00:24:13;24.80;;;13.30;;
51146;SDS011;37207;53.060;18.726;2023-01-29T00:26:52;27.10;;;12.60;;
51146;SDS011;37207;53.060;18.726;2023-01-29T00:29:19;23.00;;;13.20;;
51146;SDS011;37207;53.060;18.726;2023-01-29T00:31:47;25.20;;;12.10;;
51146;SDS011;37207;53.060;18.726;2023-01-29T00:34:15;22.90;;;11.70;;
51146;SDS011;37207;53.060;18.726;2023-01-29T00:36:42;31.90;;;13.30;;
51146;SDS011;37207;53.060;18.726;2023-01-29T00:39:12;22.60;;;13.00;;
51146;SDS011;37207;53.060;18.726;2023-01-29T00:41:38;30.80;;;13.50;;
51146;SDS011;37207;53.060;18.726;2023-01-29T00:44:23;24.60;;;14.30;;
51146;SDS011;37207;53.060;18.726;2023-01-29T00:47:09;20.50;;;12.50;;
51146;SDS011;37207;53.060;18.726;2023-01-29T00:49:54;19.90;;;11.40;;
51146;SDS011;37207;53.060;18.726;2023-01-29T00:52:21;23.90;;;11.80;;
51146;SDS011;37207;53.060;18.726;2023-01-29T00:54:51;22.50;;;12.30;;
51146;SDS011;37207;53.060;18.726;2023-01-29T00:57:19;16.40;;;10.10;;
51146;SDS011;37207;53.060;18.726;2023-01-29T00:59:46;21.60;;;10.70;;
51146;SDS011;37207;53.060;18.726;2023-01-29T01:02:12;18.10;;;11.60;;
51146;SDS011;37207;53.060;18.726;2023-01-29T01:04:58;16.10;;;10.70;;
51146;SDS011;37207;53.060;18.726;2023-01-29T01:07:24;27.50;;;12.40;;
51146;SDS011;37207;53.060;18.726;2023-01-29T01:09:51;20.70;;;12.10;;
51146;SDS011;37207;53.060;18.726;2023-01-29T01:12:36;25.10;;;11.40;;
51146;SDS011;37207;53.060;18.726;2023-01-29T01:15:03;21.40;;;11.20;;
51146;SDS011;37207;53.060;18.726;2023-01-29T01:17:30;21.30;;;11.90;;
51146;SDS011;37207;53.060;18.726;2023-01-29T01:19:56;12.80;;;10.10;;
51146;SDS011;37207;53.060;18.726;2023-01-29T01:22:23;15.80;;;9.50;;
51146;SDS011;37207;53.060;18.726;2023-01-29T01:24:49;14.00;;;9.20;;
51146;SDS011;37207;53.060;18.726;2023-01-29T01:27:16;14.20;;;9.10;;
51146;SDS011;37207;53.060;18.726;2023-01-29T01:29:45;16.20;;;8.70;;
51146;SDS011;37207;53.060;18.726;2023-01-29T01:32:12;14.50;;;9.30;;
51146;SDS011;37207;53.060;18.726;2023-01-29T01:34:38;15.10;;;7.20;;
51146;SDS011;37207;53.060;18.726;2023-01-29T01:37:05;17.80;;;9.80;;
51146;SDS011;37207;53.060;18.726;2023-01-29T01:39:32;13.80;;;9.10;;
51146;SDS011;37207;53.060;18.726;2023-01-29T01:41:58;13.60;;;9.40;;
51146;SDS011;37207;53.060;18.726;2023-01-29T01:47:18;12.10;;;9.00;;
51146;SDS011;37207;53.060;18.726;2023-01-29T01:49:49;17.20;;;9.30;;
51146;SDS011;37207;53.060;18.726;2023-01-29T01:52:16;13.20;;;9.00;;
51146;SDS011;37207;53.060;18.726;2023-01-29T01:54:44;13.60;;;9.00;;
51146;SDS011;37207;53.060;18.726;2023-01-29T01:57:12;13.00;;;9.40;;
51146;SDS011;37207;53.060;18.726;2023-01-29T01:59:45;19.70;;;9.60;;
51146;SDS011;37207;53.060;18.726;2023-01-29T02:02:16;14.60;;;7.30;;
51146;SDS011;37207;53.060;18.726;2023-01-29T02:05:01;15.40;;;9.20;;
51146;SDS011;37207;53.060;18.726;2023-01-29T02:07:48;18.20;;;10.00;;
51146;SDS011;37207;53.060;18.726;2023-01-29T02:10:37;16.60;;;10.20;;
51146;SDS011;37207;53.060;18.726;2023-01-29T02:13:07;14.80;;;9.10;;
51146;SDS011;37207;53.060;18.726;2023-01-29T02:15:35;20.80;;;9.20;;
51146;SDS011;37207;53.060;18.726;2023-01-29T02:18:02;11.30;;;7.30;;
51146;SDS011;37207;53.060;18.726;2023-01-29T02:20:29;12.70;;;7.40;;
51146;SDS011;37207;53.060;18.726;2023-01-29T02:31:31;12.00;;;7.50;;
51146;SDS011;37207;53.060;18.726;2023-01-29T02:34:07;11.60;;;7.70;;
51146;SDS011;37207;53.060;18.726;2023-01-29T02:39:37;13.20;;;8.10;;
51146;SDS011;37207;53.060;18.726;2023-01-29T02:44:55;9.00;;;6.90;;
51146;SDS011;37207;53.060;18.726;2023-01-29T02:47:37;17.30;;;8.20;;
51146;SDS011;37207;53.060;18.726;2023-01-29T02:53:23;11.30;;;6.50;;
51146;SDS011;37207;53.060;18.726;2023-01-29T02:58:33;14.90;;;7.60;;
51146;SDS011;37207;53.060;18.726;2023-01-29T03:01:06;10.60;;;7.10;;
51146;SDS011;37207;53.060;18.726;2023-01-29T03:03:39;6.70;;;5.30;;
51146;SDS011;37207;53.060;18.726;2023-01-29T03:06:16;19.30;;;7.90;;
51146;SDS011;37207;53.060;18.726;2023-01-29T03:08:52;8.20;;;6.40;;
51146;SDS011;37207;53.060;18.726;2023-01-29T03:11:27;14.80;;;6.20;;
51146;SDS011;37207;53.060;18.726;2023-01-29T03:14:11;10.30;;;5.70;;
51146;SDS011;37207;53.060;18.726;2023-01-29T03:16:48;8.30;;;5.50;;
51146;SDS011;37207;53.060;18.726;2023-01-29T03:19:18;9.90;;;6.50;;
51146;SDS011;37207;53.060;18.726;2023-01-29T03:21:47;11.60;;;6.90;;
51146;SDS011;37207;53.060;18.726;2023-01-29T03:24:34;8.90;;;7.30;;
51146;SDS011;37207;53.060;18.726;2023-01-29T03:27:39;9.50;;;6.00;;
51146;SDS011;37207;53.060;18.726;2023-01-29T03:30:32;7.80;;;5.90;;
51146;SDS011;37207;53.060;18.726;2023-01-29T03:33:30;14.90;;;7.00;;
51146;SDS011;37207;53.060;18.726;2023-01-29T03:36:04;8.40;;;5.60;;
51146;SDS011;37207;53.060;18.726;2023-01-29T03:38:34;9.50;;;6.00;;
51146;SDS011;37207;53.060;18.726;2023-01-29T03:41:04;8.50;;;5.10;;
51146;SDS011;37207;53.060;18.726;2023-01-29T03:43:56;9.70;;;6.50;;
51146;SDS011;37207;53.060;18.726;2023-01-29T03:46:57;15.80;;;6.20;;
51146;SDS011;37207;53.060;18.726;2023-01-29T03:49:37;8.70;;;5.20;;
51146;SDS011;37207;53.060;18.726;2023-01-29T03:57:52;13.30;;;6.10;;
51146;SDS011;37207;53.060;18.726;2023-01-29T04:01:26;10.80;;;5.30;;
51146;SDS011;37207;53.060;18.726;2023-01-29T04:03:54;5.50;;;4.30;;
51146;SDS011;37207;53.060;18.726;2023-01-29T04:06:29;12.80;;;5.80;;
51146;SDS011;37207;53.060;18.726;2023-01-29T04:09:13;5.80;;;5.20;;
51146;SDS011;37207;53.060;18.726;2023-01-29T04:11:49;7.20;;;4.90;;
51146;SDS011;37207;53.060;18.726;2023-01-29T04:14:22;5.60;;;4.20;;
51146;SDS011;37207;53.060;18.726;2023-01-29T04:16:50;6.20;;;4.80;;
51146;SDS011;37207;53.060;18.726;2023-01-29T04:19:35;7.20;;;4.20;;
51146;SDS011;37207;53.060;18.726;2023-01-29T04:22:04;7.30;;;4.20;;
51146;SDS011;37207;53.060;18.726;2023-01-29T04:24:35;7.90;;;4.90;;
51146;SDS011;37207;53.060;18.726;2023-01-29T04:29:38;4.40;;;3.90;;
51146;SDS011;37207;53.060;18.726;2023-01-29T04:35:09;7.70;;;5.10;;
51146;SDS011;37207;53.060;18.726;2023-01-29T04:37:55;5.30;;;3.90;;
51146;SDS011;37207;53.060;18.726;2023-01-29T04:40:41;13.40;;;4.00;;
51146;SDS011;37207;53.060;18.726;2023-01-29T04:43:14;3.80;;;3.50;;
51146;SDS011;37207;53.060;18.726;2023-01-29T04:45:56;8.40;;;4.30;;
51146;SDS011;37207;53.060;18.726;2023-01-29T04:51:03;7.10;;;4.50;;
51146;SDS011;37207;53.060;18.726;2023-01-29T04:56:20;5.90;;;4.30;;
51146;SDS011;37207;53.060;18.726;2023-01-29T04:58:56;9.00;;;5.80;;
51146;SDS011;37207;53.060;18.726;2023-01-29T05:01:29;9.90;;;5.80;;
51146;SDS011;37207;53.060;18.726;2023-01-29T05:03:59;10.10;;;5.80;;
51146;SDS011;37207;53.060;18.726;2023-01-29T05:06:29;8.10;;;6.30;;
51146;SDS011;37207;53.060;18.726;2023-01-29T05:08:58;6.70;;;5.20;;
51146;SDS011;37207;53.060;18.726;2023-01-29T05:11:27;8.40;;;4.80;;
51146;SDS011;37207;53.060;18.726;2023-01-29T05:13:57;5.10;;;4.60;;
51146;SDS011;37207;53.060;18.726;2023-01-29T05:16:27;8.20;;;6.00;;
51146;SDS011;37207;53.060;18.726;2023-01-29T05:21:37;10.30;;;5.60;;
51146;SDS011;37207;53.060;18.726;2023-01-29T05:26:42;12.80;;;6.90;;
51146;SDS011;37207;53.060;18.726;2023-01-29T05:29:29;6.90;;;5.10;;
51146;SDS011;37207;53.060;18.726;2023-01-29T05:31:55;5.20;;;2.80;;
51146;SDS011;37207;53.060;18.726;2023-01-29T05:34:22;6.50;;;4.30;;
51146;SDS011;37207;53.060;18.726;2023-01-29T05:36:49;4.70;;;2.60;;
51146;SDS011;37207;53.060;18.726;2023-01-29T05:39:15;10.90;;;6.10;;
51146;SDS011;37207;53.060;18.726;2023-01-29T05:41:42;9.90;;;4.40;;
51146;SDS011;37207;53.060;18.726;2023-01-29T05:44:09;8.50;;;6.00;;
51146;SDS011;37207;53.060;18.726;2023-01-29T05:46:36;7.30;;;5.00;;
51146;SDS011;37207;53.060;18.726;2023-01-29T05:49:04;6.40;;;4.60;;
51146;SDS011;37207;53.060;18.726;2023-01-29T05:51:31;8.60;;;4.80;;
51146;SDS011;37207;53.060;18.726;2023-01-29T05:53:57;7.10;;;4.50;;
51146;SDS011;37207;53.060;18.726;2023-01-29T05:56:24;20.20;;;7.70;;
51146;SDS011;37207;53.060;18.726;2023-01-29T05:58:51;7.20;;;6.60;;
51146;SDS011;37207;53.060;18.726;2023-01-29T06:01:19;15.30;;;9.20;;
51146;SDS011;37207;53.060;18.726;2023-01-29T06:03:48;43.10;;;14.80;;
51146;SDS011;37207;53.060;18.726;2023-01-29T06:06:15;18.00;;;10.70;;
51146;SDS011;37207;53.060;18.726;2023-01-29T06:08:42;18.90;;;11.60;;
51146;SDS011;37207;53.060;18.726;2023-01-29T06:11:09;17.00;;;8.00;;
51146;SDS011;37207;53.060;18.726;2023-01-29T06:13:38;12.50;;;5.00;;
51146;SDS011;37207;53.060;18.726;2023-01-29T06:16:05;20.90;;;9.90;;
51146;SDS011;37207;53.060;18.726;2023-01-29T06:18:34;12.90;;;6.00;;
51146;SDS011;37207;53.060;18.726;2023-01-29T06:21:02;15.80;;;11.50;;
51146;SDS011;37207;53.060;18.726;2023-01-29T06:23:30;14.00;;;7.50;;
51146;SDS011;37207;53.060;18.726;2023-01-29T06:26:01;8.70;;;7.40;;
51146;SDS011;37207;53.060;18.726;2023-01-29T06:28:29;13.50;;;7.20;;
51146;SDS011;37207;53.060;18.726;2023-01-29T06:30:56;10.80;;;6.40;;
51146;SDS011;37207;53.060;18.726;2023-01-29T06:33:24;15.80;;;10.10;;
51146;SDS011;37207;53.060;18.726;2023-01-29T06:35:55;10.50;;;7.90;;
51146;SDS011;37207;53.060;18.726;2023-01-29T06:38:23;10.40;;;7.40;;
51146;SDS011;37207;53.060;18.726;2023-01-29T06:40:50;7.70;;;5.80;;
51146;SDS011;37207;53.060;18.726;2023-01-29T06:43:17;7.50;;;6.60;;
51146;SDS011;37207;53.060;18.726;2023-01-29T06:45:48;13.40;;;8.10;;
51146;SDS011;37207;53.060;18.726;2023-01-29T06:48:16;8.30;;;6.80;;
51146;SDS011;37207;53.060;18.726;2023-01-29T06:50:43;8.60;;;6.20;;
51146;SDS011;37207;53.060;18.726;2023-01-29T06:53:10;12.40;;;8.40;;
51146;SDS011;37207;53.060;18.726;2023-01-29T06:55:36;8.70;;;6.90;;
51146;SDS011;37207;53.060;18.726;2023-01-29T06:58:03;7.80;;;6.90;;
51146;SDS011;37207;53.060;18.726;2023-01-29T07:02:59;13.20;;;9.20;;
51146;SDS011;37207;53.060;18.726;2023-01-29T07:05:25;10.70;;;7.20;;
51146;SDS011;37207;53.060;18.726;2023-01-29T07:07:52;15.60;;;8.30;;
51146;SDS011;37207;53.060;18.726;2023-01-29T07:10:19;14.70;;;6.00;;
51146;SDS011;37207;53.060;18.726;2023-01-29T07:12:46;8.80;;;8.00;;
51146;SDS011;37207;53.060;18.726;2023-01-29T07:15:12;6.90;;;6.20;;
51146;SDS011;37207;53.060;18.726;2023-01-29T07:17:39;11.70;;;7.80;;
51146;SDS011;37207;53.060;18.726;2023-01-29T07:20:06;10.70;;;6.30;;
51146;SDS011;37207;53.060;18.726;2023-01-29T07:22:33;9.00;;;6.40;;
51146;SDS011;37207;53.060;18.726;2023-01-29T07:25:00;8.60;;;7.70;;
51146;SDS011;37207;53.060;18.726;2023-01-29T07:27:26;9.40;;;7.70;;
51146;SDS011;37207;53.060;18.726;2023-01-29T07:29:53;13.60;;;9.80;;
51146;SDS011;37207;53.060;18.726;2023-01-29T07:32:19;13.70;;;9.70;;
51146;SDS011;37207;53.060;18.726;2023-01-29T07:34:46;12.10;;;7.20;;
51146;SDS011;37207;53.060;18.726;2023-01-29T07:37:13;42.90;;;14.90;;
51146;SDS011;37207;53.060;18.726;2023-01-29T07:39:39;37.40;;;14.10;;
51146;SDS011;37207;53.060;18.726;2023-01-29T07:42:06;17.90;;;10.70;;
51146;SDS011;37207;53.060;18.726;2023-01-29T07:44:32;15.10;;;10.60;;
51146;SDS011;37207;53.060;18.726;2023-01-29T07:46:59;14.20;;;9.90;;
51146;SDS011;37207;53.060;18.726;2023-01-29T07:49:26;45.70;;;19.50;;
51146;SDS011;37207;53.060;18.726;2023-01-29T07:51:52;34.40;;;17.80;;
51146;SDS011;37207;53.060;18.726;2023-01-29T07:54:19;15.20;;;13.70;;
51146;SDS011;37207;53.060;18.726;2023-01-29T07:56:45;48.60;;;29.50;;
51146;SDS011;37207;53.060;18.726;2023-01-29T07:59:12;28.60;;;20.30;;
51146;SDS011;37207;53.060;18.726;2023-01-29T08:01:39;21.00;;;15.80;;
51146;SDS011;37207;53.060;18.726;2023-01-29T08:04:05;21.30;;;14.50;;
51146;SDS011;37207;53.060;18.726;2023-01-29T08:06:32;38.50;;;21.70;;
51146;SDS011;37207;53.060;18.726;2023-01-29T08:08:58;18.90;;;12.90;;
51146;SDS011;37207;53.060;18.726;2023-01-29T08:11:25;26.70;;;12.90;;
51146;SDS011;37207;53.060;18.726;2023-01-29T08:13:52;31.90;;;14.50;;
51146;SDS011;37207;53.060;18.726;2023-01-29T08:16:20;38.50;;;18.10;;
51146;SDS011;37207;53.060;18.726;2023-01-29T08:18:46;34.30;;;17.70;;
51146;SDS011;37207;53.060;18.726;2023-01-29T08:21:14;23.80;;;13.40;;
51146;SDS011;37207;53.060;18.726;2023-01-29T08:23:41;70.10;;;26.90;;
51146;SDS011;37207;53.060;18.726;2023-01-29T08:26:08;36.80;;;17.10;;
51146;SDS011;37207;53.060;18.726;2023-01-29T08:28:35;44.00;;;22.90;;
51146;SDS011;37207;53.060;18.726;2023-01-29T08:31:04;39.20;;;19.70;;
51146;SDS011;37207;53.060;18.726;2023-01-29T08:33:37;31.90;;;18.30;;
51146;SDS011;37207;53.060;18.726;2023-01-29T08:36:04;28.30;;;17.00;;
51146;SDS011;37207;53.060;18.726;2023-01-29T08:38:31;28.50;;;15.40;;
51146;SDS011;37207;53.060;18.726;2023-01-29T08:40:58;33.00;;;16.60;;
51146;SDS011;37207;53.060;18.726;2023-01-29T08:43:25;309.90;;;95.00;;
51146;SDS011;37207;53.060;18.726;2023-01-29T08:45:51;253.10;;;145.60;;
51146;SDS011;37207;53.060;18.726;2023-01-29T08:48:18;64.40;;;29.80;;
51146;SDS011;37207;53.060;18.726;2023-01-29T08:50:45;39.30;;;21.20;;
51146;SDS011;37207;53.060;18.726;2023-01-29T08:53:11;62.80;;;28.40;;
51146;SDS011;37207;53.060;18.726;2023-01-29T08:55:39;47.80;;;24.10;;
51146;SDS011;37207;53.060;18.726;2023-01-29T08:58:06;35.30;;;22.80;;
51146;SDS011;37207;53.060;18.726;2023-01-29T09:03:01;31.80;;;18.00;;
51146;SDS011;37207;53.060;18.726;2023-01-29T09:05:29;29.40;;;19.30;;
51146;SDS011;37207;53.060;18.726;2023-01-29T09:07:56;24.70;;;15.30;;
51146;SDS011;37207;53.060;18.726;2023-01-29T09:10:23;19.60;;;13.90;;
51146;SDS011;37207;53.060;18.726;2023-01-29T09:12:50;46.60;;;29.10;;
51146;SDS011;37207;53.060;18.726;2023-01-29T09:15:16;24.90;;;15.80;;
51146;SDS011;37207;53.060;18.726;2023-01-29T09:17:43;24.80;;;15.50;;
51146;SDS011;37207;53.060;18.726;2023-01-29T09:20:10;28.70;;;16.00;;
51146;SDS011;37207;53.060;18.726;2023-01-29T09:22:36;26.10;;;14.70;;
51146;SDS011;37207;53.060;18.726;2023-01-29T09:25:03;35.40;;;18.70;;
51146;SDS011;37207;53.060;18.726;2023-01-29T09:27:30;20.60;;;13.40;;
51146;SDS011;37207;53.060;18.726;2023-01-29T09:29:57;20.30;;;15.20;;
51146;SDS011;37207;53.060;18.726;2023-01-29T09:32:23;28.80;;;15.00;;
51146;SDS011;37207;53.060;18.726;2023-01-29T09:34:50;27.20;;;16.40;;
51146;SDS011;37207;53.060;18.726;2023-01-29T09:37:16;32.50;;;17.70;;
51146;SDS011;37207;53.060;18.726;2023-01-29T09:39:43;28.40;;;16.30;;
51146;SDS011;37207;53.060;18.726;2023-01-29T09:42:11;37.60;;;18.40;;
51146;SDS011;37207;53.060;18.726;2023-01-29T09:44:46;34.00;;;19.30;;
51146;SDS011;37207;53.060;18.726;2023-01-29T09:47:22;49.00;;;20.00;;
51146;SDS011;37207;53.060;18.726;2023-01-29T09:50:12;47.00;;;24.40;;
51146;SDS011;37207;53.060;18.726;2023-01-29T09:52:48;30.80;;;18.60;;
51146;SDS011;37207;53.060;18.726;2023-01-29T10:00:29;30.60;;;17.50;;
51146;SDS011;37207;53.060;18.726;2023-01-29T10:08:35;48.40;;;22.00;;
51146;SDS011;37207;53.060;18.726;2023-01-29T10:19:51;49.60;;;18.30;;
51146;SDS011;37207;53.060;18.726;2023-01-29T10:25:39;59.50;;;24.50;;
51146;SDS011;37207;53.060;18.726;2023-01-29T10:28:14;54.20;;;20.90;;
51146;SDS011;37207;53.060;18.726;2023-01-29T10:30:58;94.60;;;23.90;;
51146;SDS011;37207;53.060;18.726;2023-01-29T10:33:29;53.40;;;23.10;;
51146;SDS011;37207;53.060;18.726;2023-01-29T10:36:02;51.60;;;23.50;;
51146;SDS011;37207;53.060;18.726;2023-01-29T10:43:48;30.40;;;17.10;;
51146;SDS011;37207;53.060;18.726;2023-01-29T10:46:39;35.50;;;19.20;;
51146;SDS011;37207;53.060;18.726;2023-01-29T10:49:35;56.10;;;23.20;;
51146;SDS011;37207;53.060;18.726;2023-01-29T10:52:09;52.20;;;23.60;;
51146;SDS011;37207;53.060;18.726;2023-01-29T10:55:08;51.10;;;22.80;;
51146;SDS011;37207;53.060;18.726;2023-01-29T11:00:50;54.80;;;26.00;;
51146;SDS011;37207;53.060;18.726;2023-01-29T11:08:53;38.60;;;21.60;;
51146;SDS011;37207;53.060;18.726;2023-01-29T11:11:23;48.80;;;35.30;;
51146;SDS011;37207;53.060;18.726;2023-01-29T11:14:02;94.70;;;31.40;;
51146;SDS011;37207;53.060;18.726;2023-01-29T11:16:44;75.60;;;32.00;;
51146;SDS011;37207;53.060;18.726;2023-01-29T11:19:13;179.30;;;52.70;;
51146;SDS011;37207;53.060;18.726;2023-01-29T11:21:59;146.20;;;45.70;;
51146;SDS011;37207;53.060;18.726;2023-01-29T11:24:26;132.90;;;50.50;;
51146;SDS011;37207;53.060;18.726;2023-01-29T11:26:54;161.30;;;51.20;;
51146;SDS011;37207;53.060;18.726;2023-01-29T11:32:14;71.80;;;30.70;;
51146;SDS011;37207;53.060;18.726;2023-01-29T11:37:40;62.10;;;27.80;;
51146;SDS011;37207;53.060;18.726;2023-01-29T11:42:45;48.20;;;23.60;;
51146;SDS011;37207;53.060;18.726;2023-01-29T11:45:33;38.50;;;21.20;;
51146;SDS011;37207;53.060;18.726;2023-01-29T11:48:03;40.90;;;21.30;;
51146;SDS011;37207;53.060;18.726;2023-01-29T11:50:31;39.00;;;24.50;;
51146;SDS011;37207;53.060;18.726;2023-01-29T11:52:59;53.10;;;25.60;;
51146;SDS011;37207;53.060;18.726;2023-01-29T11:55:27;36.40;;;24.70;;
51146;SDS011;37207;53.060;18.726;2023-01-29T11:58:04;44.30;;;24.20;;
51146;SDS011;37207;53.060;18.726;2023-01-29T12:00:39;53.70;;;24.60;;
51146;SDS011;37207;53.060;18.726;2023-01-29T12:09:15;44.50;;;22.80;;
51146;SDS011;37207;53.060;18.726;2023-01-29T12:11:45;39.70;;;20.80;;
51146;SDS011;37207;53.060;18.726;2023-01-29T12:14:22;51.20;;;28.70;;
51146;SDS011;37207;53.060;18.726;2023-01-29T12:17:34;53.30;;;29.00;;
51146;SDS011;37207;53.060;18.726;2023-01-29T12:19:57;46.00;;;24.30;;
51146;SDS011;37207;53.060;18.726;2023-01-29T12:22:40;45.00;;;25.70;;
51146;SDS011;37207;53.060;18.726;2023-01-29T12:25:17;55.30;;;27.50;;
51146;SDS011;37207;53.060;18.726;2023-01-29T12:27:56;59.20;;;27.80;;
51146;SDS011;37207;53.060;18.726;2023-01-29T12:30:30;51.50;;;26.40;;
51146;SDS011;37207;53.060;18.726;2023-01-29T12:35:47;60.20;;;26.10;;
51146;SDS011;37207;53.060;18.726;2023-01-29T12:38:20;81.80;;;35.90;;
51146;SDS011;37207;53.060;18.726;2023-01-29T12:40:59;62.70;;;31.60;;
51146;SDS011;37207;53.060;18.726;2023-01-29T12:43:37;67.70;;;29.30;;
51146;SDS011;37207;53.060;18.726;2023-01-29T12:46:19;78.20;;;49.20;;
51146;SDS011;37207;53.060;18.726;2023-01-29T12:48:53;69.90;;;29.20;;
51146;SDS011;37207;53.060;18.726;2023-01-29T12:51:23;42.20;;;22.30;;
51146;SDS011;37207;53.060;18.726;2023-01-29T12:53:56;57.00;;;24.20;;
51146;SDS011;37207;53.060;18.726;2023-01-29T12:56:34;51.40;;;25.10;;
51146;SDS011;37207;53.060;18.726;2023-01-29T12:59:09;44.90;;;21.80;;
51146;SDS011;37207;53.060;18.726;2023-01-29T13:01:53;25.60;;;15.20;;
51146;SDS011;37207;53.060;18.726;2023-01-29T13:04:31;43.30;;;22.00;;
51146;SDS011;37207;53.060;18.726;2023-01-29T13:07:27;57.20;;;25.70;;
51146;SDS011;37207;53.060;18.726;2023-01-29T13:10:01;28.60;;;17.50;;
51146;SDS011;37207;53.060;18.726;2023-01-29T13:12:32;53.90;;;26.90;;
51146;SDS011;37207;53.060;18.726;2023-01-29T13:17:32;36.10;;;18.30;;
51146;SDS011;37207;53.060;18.726;2023-01-29T13:20:10;149.70;;;42.20;;
51146;SDS011;37207;53.060;18.726;2023-01-29T13:22:49;186.20;;;69.10;;
51146;SDS011;37207;53.060;18.726;2023-01-29T13:25:19;136.50;;;53.00;;
51146;SDS011;37207;53.060;18.726;2023-01-29T13:27:46;149.80;;;45.70;;
51146;SDS011;37207;53.060;18.726;2023-01-29T13:30:27;114.80;;;38.70;;
51146;SDS011;37207;53.060;18.726;2023-01-29T13:32:56;130.30;;;39.90;;
51146;SDS011;37207;53.060;18.726;2023-01-29T13:38:04;83.00;;;29.30;;
51146;SDS011;37207;53.060;18.726;2023-01-29T13:40:49;73.40;;;26.50;;
51146;SDS011;37207;53.060;18.726;2023-01-29T13:43:20;53.30;;;23.50;;
51146;SDS011;37207;53.060;18.726;2023-01-29T13:45:48;55.10;;;28.00;;
51146;SDS011;37207;53.060;18.726;2023-01-29T13:48:27;51.00;;;24.00;;
51146;SDS011;37207;53.060;18.726;2023-01-29T13:51:02;55.60;;;26.00;;
51146;SDS011;37207;53.060;18.726;2023-01-29T13:53:42;48.80;;;22.00;;
51146;SDS011;37207;53.060;18.726;2023-01-29T13:56:27;51.80;;;25.70;;
51146;SDS011;37207;53.060;18.726;2023-01-29T13:59:08;48.00;;;24.40;;
51146;SDS011;37207;53.060;18.726;2023-01-29T14:06:46;42.70;;;20.50;;
51146;SDS011;37207;53.060;18.726;2023-01-29T14:17:16;83.10;;;34.90;;
51146;SDS011;37207;53.060;18.726;2023-01-29T14:19:45;67.90;;;30.50;;
51146;SDS011;37207;53.060;18.726;2023-01-29T14:22:23;50.90;;;24.10;;
51146;SDS011;37207;53.060;18.726;2023-01-29T14:24:54;57.40;;;26.70;;
51146;SDS011;37207;53.060;18.726;2023-01-29T14:27:24;57.70;;;27.00;;
51146;SDS011;37207;53.060;18.726;2023-01-29T14:29:51;59.10;;;26.40;;
51146;SDS011;37207;53.060;18.726;2023-01-29T14:32:25;57.10;;;25.60;;
51146;SDS011;37207;53.060;18.726;2023-01-29T14:34:59;82.30;;;38.00;;
51146;SDS011;37207;53.060;18.726;2023-01-29T14:37:31;67.20;;;33.10;;
51146;SDS011;37207;53.060;18.726;2023-01-29T14:40:12;63.20;;;32.80;;
51146;SDS011;37207;53.060;18.726;2023-01-29T14:47:54;61.90;;;28.70;;
51146;SDS011;37207;53.060;18.726;2023-01-29T14:56:31;48.20;;;23.20;;
51146;SDS011;37207;53.060;18.726;2023-01-29T14:59:18;57.80;;;26.30;;
51146;SDS011;37207;53.060;18.726;2023-01-29T15:01:52;50.90;;;24.30;;
51146;SDS011;37207;53.060;18.726;2023-01-29T15:07:16;94.70;;;34.40;;
51146;SDS011;37207;53.060;18.726;2023-01-29T15:09:56;164.10;;;42.60;;
51146;SDS011;37207;53.060;18.726;2023-01-29T15:12:38;66.70;;;28.10;;
51146;SDS011;37207;53.060;18.726;2023-01-29T15:15:14;107.20;;;35.20;;
51146;SDS011;37207;53.060;18.726;2023-01-29T15:18:00;94.90;;;33.50;;
51146;SDS011;37207;53.060;18.726;2023-01-29T15:20:31;131.00;;;39.40;;
51146;SDS011;37207;53.060;18.726;2023-01-29T15:23:16;136.40;;;43.50;;
51146;SDS011;37207;53.060;18.726;2023-01-29T15:25:50;95.80;;;31.80;;
51146;SDS011;37207;53.060;18.726;2023-01-29T15:28:20;84.90;;;34.70;;
51146;SDS011;37207;53.060;18.726;2023-01-29T15:30:53;62.70;;;26.30;;
51146;SDS011;37207;53.060;18.726;2023-01-29T15:33:22;59.90;;;24.50;;
51146;SDS011;37207;53.060;18.726;2023-01-29T15:35:49;89.40;;;35.90;;
51146;SDS011;37207;53.060;18.726;2023-01-29T15:38:22;71.20;;;30.10;;
51146;SDS011;37207;53.060;18.726;2023-01-29T15:40:56;78.90;;;33.60;;
51146;SDS011;37207;53.060;18.726;2023-01-29T15:43:33;59.70;;;28.70;;
51146;SDS011;37207;53.060;18.726;2023-01-29T15:46:03;54.90;;;25.50;;
51146;SDS011;37207;53.060;18.726;2023-01-29T15:48:39;62.10;;;27.90;;
51146;SDS011;37207;53.060;18.726;2023-01-29T15:51:15;57.20;;;27.80;;
51146;SDS011;37207;53.060;18.726;2023-01-29T15:56:17;43.90;;;22.80;;
51146;SDS011;37207;53.060;18.726;2023-01-29T15:58:51;48.50;;;23.60;;
51146;SDS011;37207;53.060;18.726;2023-01-29T16:01:18;155.50;;;58.90;;
51146;SDS011;37207;53.060;18.726;2023-01-29T16:03:46;94.10;;;34.10;;
51146;SDS011;37207;53.060;18.726;2023-01-29T16:06:15;83.80;;;30.50;;
51146;SDS011;37207;53.060;18.726;2023-01-29T16:08:43;134.70;;;42.80;;
51146;SDS011;37207;53.060;18.726;2023-01-29T16:11:13;109.60;;;34.90;;
51146;SDS011;37207;53.060;18.726;2023-01-29T16:13:42;78.40;;;29.60;;
51146;SDS011;37207;53.060;18.726;2023-01-29T16:18:47;78.80;;;27.60;;
51146;SDS011;37207;53.060;18.726;2023-01-29T16:21:28;116.20;;;36.60;;
51146;SDS011;37207;53.060;18.726;2023-01-29T16:23:59;127.70;;;38.30;;
51146;SDS011;37207;53.060;18.726;2023-01-29T16:26:32;66.20;;;28.30;;
51146;SDS011;37207;53.060;18.726;2023-01-29T16:29:03;58.80;;;24.60;;
51146;SDS011;37207;53.060;18.726;2023-01-29T16:31:34;90.90;;;35.70;;
51146;SDS011;37207;53.060;18.726;2023-01-29T16:34:06;61.10;;;26.70;;
51146;SDS011;37207;53.060;18.726;2023-01-29T16:36:35;54.10;;;26.10;;
51146;SDS011;37207;53.060;18.726;2023-01-29T16:39:03;57.70;;;26.50;;
51146;SDS011;37207;53.060;18.726;2023-01-29T16:41:39;68.70;;;29.30;;
51146;SDS011;37207;53.060;18.726;2023-01-29T16:46:44;61.00;;;26.60;;
51146;SDS011;37207;53.060;18.726;2023-01-29T16:52:19;44.80;;;22.30;;
51146;SDS011;37207;53.060;18.726;2023-01-29T16:54:49;44.20;;;22.10;;
51146;SDS011;37207;53.060;18.726;2023-01-29T16:57:23;49.90;;;21.60;;
51146;SDS011;37207;53.060;18.726;2023-01-29T16:59:54;55.70;;;24.50;;
51146;SDS011;37207;53.060;18.726;2023-01-29T17:02:27;51.50;;;22.90;;
51146;SDS011;37207;53.060;18.726;2023-01-29T17:05:08;56.50;;;24.90;;
51146;SDS011;37207;53.060;18.726;2023-01-29T17:07:43;62.50;;;25.10;;
51146;SDS011;37207;53.060;18.726;2023-01-29T17:10:15;94.60;;;34.70;;